createdAt,value
2023-05-01T00:01:53.057Z,13.40
2023-05-01T00:04:22.554Z,13.30
2023-05-01T00:06:50.773Z,13.30
2023-05-01T00:09:18.969Z,13.20
2023-05-01T00:11:47.249Z,13.20
2023-05-01T00:14:15.350Z,13.30
2023-05-01T00:16:46.354Z,13.40
2023-05-01T00:19:18.455Z,13.50
2023-05-01T00:21:48.034Z,13.30
2023-05-01T00:24:17.339Z,13.50
2023-05-01T00:26:45.515Z,13.70
2023-05-01T00:29:13.580Z,13.50
2023-05-01T00:31:42.844Z,13.60
2023-05-01T00:34:12.549Z,13.80
2023-05-01T00:36:40.668Z,13.70
2023-05-01T00:39:08.879Z,13.70
2023-05-01T00:41:37.029Z,13.20
2023-05-01T00:44:05.136Z,13.50
2023-05-01T00:46:33.413Z,13.80
2023-05-01T00:49:01.647Z,14.00
2023-05-01T00:51:31.713Z,14.00
2023-05-01T00:54:00.880Z,14.20
2023-05-01T00:56:28.974Z,14.20
2023-05-01T00:58:57.058Z,14.20
2023-05-01T01:01:25.199Z,14.20
2023-05-01T01:03:54.664Z,14.30
2023-05-01T01:06:25.600Z,14.20
2023-05-01T01:08:59.420Z,14.10
2023-05-01T01:11:31.624Z,14.30
2023-05-01T01:14:01.038Z,14.40
2023-05-01T01:16:33.155Z,14.30
2023-05-01T01:19:05.237Z,14.50
2023-05-01T01:21:33.813Z,14.30
2023-05-01T01:24:22.263Z,14.50
2023-05-01T01:27:08.063Z,14.30
2023-05-01T01:30:24.347Z,14.20
2023-05-01T01:33:02.129Z,14.40
2023-05-01T01:35:32.230Z,14.10
2023-05-01T01:38:02.731Z,13.90
2023-05-01T01:40:33.544Z,13.80
2023-05-01T01:43:04.945Z,13.80
2023-05-01T01:45:35.959Z,13.90
2023-05-01T01:48:04.137Z,14.00
2023-05-01T01:50:33.623Z,14.30
2023-05-01T01:53:02.046Z,14.20
2023-05-01T01:55:31.225Z,14.30
2023-05-01T01:57:59.542Z,14.20
2023-05-01T02:00:27.726Z,14.00
2023-05-01T02:02:55.889Z,14.30
2023-05-01T02:05:24.130Z,14.00
2023-05-01T02:07:53.576Z,13.90
2023-05-01T02:10:21.757Z,13.90
2023-05-01T02:12:50.345Z,13.90
2023-05-01T02:15:19.164Z,13.80
2023-05-01T02:17:47.386Z,13.70
2023-05-01T02:20:15.876Z,13.60
2023-05-01T02:22:43.941Z,13.60
2023-05-01T02:25:15.043Z,13.40
2023-05-01T02:27:46.400Z,13.30
2023-05-01T02:30:14.675Z,13.50
2023-05-01T02:32:42.938Z,13.60
2023-05-01T02:35:11.681Z,13.60
2023-05-01T02:37:39.862Z,13.70
2023-05-01T02:40:09.306Z,13.30
2023-05-01T02:42:38.762Z,13.30
2023-05-01T02:45:08.202Z,13.50
2023-05-01T02:47:38.404Z,13.40
2023-05-01T02:50:08.132Z,13.60
2023-05-01T02:52:36.210Z,13.60
2023-05-01T02:55:05.600Z,13.70
2023-05-01T02:57:34.509Z,13.70
2023-05-01T03:00:04.477Z,13.60
2023-05-01T03:02:33.589Z,13.70
2023-05-01T03:05:01.684Z,13.80
2023-05-01T03:07:35.122Z,13.50
2023-05-01T03:10:04.388Z,13.50
2023-05-01T03:12:32.465Z,13.70
2023-05-01T03:15:00.565Z,13.70
2023-05-01T03:17:30.211Z,13.40
2023-05-01T03:19:58.641Z,13.60
2023-05-01T03:22:26.887Z,13.60
2023-05-01T03:24:55.016Z,13.50
2023-05-01T03:27:23.077Z,13.70
2023-05-01T03:29:51.122Z,13.70
2023-05-01T03:32:19.414Z,13.70
2023-05-01T03:34:49.056Z,13.50
2023-05-01T03:37:17.158Z,13.60
2023-05-01T03:39:45.268Z,13.40
2023-05-01T03:42:13.365Z,13.70
2023-05-01T03:44:41.484Z,13.60
2023-05-01T03:47:10.374Z,13.70
2023-05-01T03:49:38.701Z,13.50
2023-05-01T03:52:08.191Z,13.40
2023-05-01T03:54:37.206Z,13.70
2023-05-01T03:57:05.525Z,13.70
2023-05-01T03:59:33.629Z,13.60
2023-05-01T04:02:01.862Z,13.50
2023-05-01T04:04:30.282Z,13.50
2023-05-01T04:06:58.643Z,13.70
2023-05-01T04:09:29.859Z,13.50
2023-05-01T04:11:58.041Z,13.70
2023-05-01T04:14:26.109Z,13.60
2023-05-01T04:16:54.212Z,13.50
2023-05-01T04:19:22.292Z,13.50
2023-05-01T04:21:50.426Z,13.40
2023-05-01T04:24:18.493Z,13.60
2023-05-01T04:26:48.039Z,13.60
2023-05-01T04:29:16.123Z,13.50
2023-05-01T04:31:44.246Z,13.50
2023-05-01T04:34:12.335Z,13.50
2023-05-01T04:36:40.442Z,13.60
2023-05-01T04:39:08.499Z,13.80
2023-05-01T04:41:36.626Z,13.60
2023-05-01T04:44:06.540Z,13.80
2023-05-01T04:46:34.739Z,13.70
2023-05-01T04:49:02.813Z,13.70
2023-05-01T04:51:31.196Z,13.70
2023-05-01T04:53:59.279Z,13.50
2023-05-01T04:56:27.455Z,13.70
2023-05-01T04:58:55.674Z,13.80
2023-05-01T05:01:25.206Z,13.70
2023-05-01T05:03:53.415Z,13.70
2023-05-01T05:06:21.927Z,13.70
2023-05-01T05:08:52.057Z,13.90
2023-05-01T05:11:20.345Z,13.90
2023-05-01T05:13:48.505Z,14.00
2023-05-01T05:16:16.881Z,14.10
2023-05-01T05:18:46.366Z,13.90
2023-05-01T05:21:14.480Z,14.00
2023-05-01T05:23:42.518Z,14.00
2023-05-01T05:26:10.688Z,14.20
2023-05-01T05:28:38.866Z,14.20
2023-05-01T05:31:07.028Z,14.20
2023-05-01T05:33:35.161Z,14.00
2023-05-01T05:36:04.947Z,14.10
2023-05-01T05:38:33.130Z,14.10
2023-05-01T05:41:01.918Z,14.20
2023-05-01T05:43:30.174Z,14.30
2023-05-01T05:45:58.944Z,14.30
2023-05-01T05:48:27.214Z,14.30
2023-05-01T05:50:55.329Z,14.30
2023-05-01T05:53:26.102Z,14.50
2023-05-01T05:55:54.609Z,14.50
2023-05-01T05:58:24.185Z,14.30
2023-05-01T06:00:53.357Z,14.20
2023-05-01T06:03:21.680Z,14.20
2023-05-01T06:05:50.110Z,14.40
2023-05-01T06:08:18.238Z,14.20
2023-05-01T06:10:47.778Z,14.30
2023-05-01T06:13:16.460Z,14.60
2023-05-01T06:15:45.131Z,14.50
2023-05-01T06:18:13.488Z,14.80
2023-05-01T06:20:42.823Z,14.80
2023-05-01T06:23:12.089Z,14.70
2023-05-01T06:25:40.709Z,14.80
2023-05-01T06:28:10.181Z,14.80
2023-05-01T06:30:38.463Z,15.20
2023-05-01T06:33:06.613Z,14.90
2023-05-01T06:35:34.785Z,14.70
2023-05-01T06:38:03.634Z,15.30
2023-05-01T06:40:34.855Z,15.10
2023-05-01T06:43:03.138Z,15.20
2023-05-01T06:45:32.782Z,15.20
2023-05-01T06:48:00.979Z,15.30
2023-05-01T06:50:29.517Z,15.30
2023-05-01T06:52:58.880Z,15.40
2023-05-01T06:55:27.103Z,15.60
2023-05-01T06:57:55.278Z,15.70
2023-05-01T07:00:23.952Z,15.60
2023-05-01T07:02:53.661Z,15.70
2023-05-01T07:05:22.552Z,15.70
2023-05-01T07:08:00.321Z,15.80
2023-05-01T07:10:30.324Z,15.80
2023-05-01T07:12:58.550Z,15.50
2023-05-01T07:15:26.657Z,15.90
2023-05-01T07:17:56.944Z,15.70
2023-05-01T07:20:25.216Z,16.10
2023-05-01T07:22:53.334Z,16.20
2023-05-01T07:25:21.634Z,16.10
2023-05-01T07:27:49.733Z,16.20
2023-05-01T07:30:17.889Z,16.10
2023-05-01T07:32:46.015Z,15.70
2023-05-01T07:35:15.627Z,16.00
2023-05-01T07:37:43.730Z,16.00
2023-05-01T07:40:13.000Z,15.80
2023-05-01T07:42:41.089Z,15.90
2023-05-01T07:45:10.153Z,16.20
2023-05-01T07:47:38.432Z,16.00
2023-05-01T07:50:10.658Z,16.00
2023-05-01T07:52:40.426Z,16.00
2023-05-01T07:55:10.001Z,15.70
2023-05-01T07:57:38.819Z,16.00
2023-05-01T08:00:08.146Z,15.90
2023-05-01T08:02:36.677Z,16.00
2023-05-01T08:05:05.449Z,16.30
2023-05-01T08:07:33.560Z,16.00
2023-05-01T08:10:03.322Z,16.20
2023-05-01T08:12:32.005Z,16.20
2023-05-01T08:15:00.208Z,16.10
2023-05-01T08:17:28.424Z,16.10
2023-05-01T08:19:56.859Z,16.30
2023-05-01T08:22:25.423Z,16.30
2023-05-01T08:24:53.821Z,16.70
2023-05-01T08:27:23.475Z,16.60
2023-05-01T08:29:51.538Z,16.50
2023-05-01T08:32:19.897Z,16.80
2023-05-01T08:34:48.115Z,16.80
2023-05-01T08:37:16.354Z,16.60
2023-05-01T08:39:44.722Z,16.80
2023-05-01T08:42:13.697Z,16.40
2023-05-01T08:44:43.424Z,16.40
2023-05-01T08:47:13.812Z,16.50
2023-05-01T08:49:42.858Z,16.50
2023-05-01T08:52:12.121Z,16.70
2023-05-01T08:54:41.406Z,16.70
2023-05-01T08:57:11.565Z,17.10
2023-05-01T08:59:40.102Z,17.00
2023-05-01T09:02:10.717Z,16.80
2023-05-01T09:04:39.858Z,17.30
2023-05-01T09:07:08.133Z,17.00
2023-05-01T09:09:36.749Z,17.30
2023-05-01T09:12:10.230Z,17.20
2023-05-01T09:14:38.599Z,16.90
2023-05-01T09:17:06.754Z,17.80
2023-05-01T09:19:37.263Z,17.50
2023-05-01T09:22:05.560Z,18.80
2023-05-01T09:24:34.126Z,18.30
2023-05-01T09:27:04.071Z,18.50
2023-05-01T09:29:39.326Z,18.90
2023-05-01T09:32:17.924Z,19.00
2023-05-01T09:34:47.757Z,19.20
2023-05-01T09:37:28.604Z,19.50
2023-05-01T09:40:09.631Z,19.60
2023-05-01T09:42:38.611Z,19.70
2023-05-01T09:45:07.932Z,19.40
2023-05-01T09:47:36.373Z,18.70
2023-05-01T09:50:06.674Z,19.60
2023-05-01T09:52:34.840Z,19.10
2023-05-01T09:55:16.029Z,19.30
2023-05-01T09:57:45.256Z,19.70
2023-05-01T10:00:15.616Z,19.80
2023-05-01T10:02:45.208Z,19.60
2023-05-01T10:05:15.948Z,19.80
2023-05-01T10:07:57.380Z,19.50
2023-05-01T10:10:25.672Z,19.20
2023-05-01T10:12:53.837Z,20.10
2023-05-01T10:15:25.465Z,20.20
2023-05-01T10:17:55.794Z,20.20
2023-05-01T10:20:25.813Z,20.70
2023-05-01T10:22:54.151Z,20.30
2023-05-01T10:25:22.431Z,19.90
2023-05-01T10:27:50.667Z,19.70
2023-05-01T10:30:18.957Z,20.30
2023-05-01T10:32:47.439Z,20.20
2023-05-01T10:35:16.650Z,21.30
2023-05-01T10:37:48.570Z,20.50
2023-05-01T10:40:47.753Z,20.50
2023-05-01T10:43:21.406Z,20.50
2023-05-01T10:45:49.842Z,20.80
2023-05-01T10:48:53.860Z,20.70
2023-05-01T10:51:24.351Z,20.80
2023-05-01T10:54:29.894Z,21.20
2023-05-01T10:57:00.371Z,21.40
2023-05-01T10:59:28.660Z,20.60
2023-05-01T11:01:56.842Z,20.70
2023-05-01T11:04:48.415Z,20.50
2023-05-01T11:07:17.960Z,20.70
2023-05-01T11:09:49.494Z,20.80
2023-05-01T11:12:38.427Z,20.20
2023-05-01T11:15:08.491Z,20.60
2023-05-01T11:17:59.371Z,20.60
2023-05-01T11:20:54.963Z,20.70
2023-05-01T11:23:25.689Z,21.00
2023-05-01T11:26:06.667Z,21.30
2023-05-01T11:28:34.934Z,21.30
2023-05-01T11:31:03.498Z,20.30
2023-05-01T11:33:31.713Z,21.00
2023-05-01T11:36:03.166Z,20.60
2023-05-01T11:38:31.372Z,21.10
2023-05-01T11:41:01.503Z,20.90
2023-05-01T11:43:31.837Z,21.40
2023-05-01T11:46:04.475Z,21.40
2023-05-01T11:48:32.769Z,21.00
2023-05-01T11:51:00.936Z,21.90
2023-05-01T11:53:30.395Z,21.50
2023-05-01T11:55:59.646Z,21.20
2023-05-01T11:58:37.530Z,21.00
2023-05-01T12:01:46.883Z,20.70
2023-05-01T12:04:15.439Z,20.10
2023-05-01T12:06:45.643Z,20.20
2023-05-01T12:09:17.525Z,21.40
2023-05-01T12:11:46.543Z,20.80
2023-05-01T12:14:16.909Z,21.10
2023-05-01T12:16:45.500Z,21.20
2023-05-01T12:19:14.867Z,21.60
2023-05-01T12:21:43.283Z,21.30
2023-05-01T12:24:11.698Z,21.30
2023-05-01T12:26:40.718Z,21.20
2023-05-01T12:29:09.141Z,21.40
2023-05-01T12:31:39.015Z,21.70
2023-05-01T12:34:08.059Z,21.20
2023-05-01T12:36:37.280Z,21.30
2023-05-01T12:39:06.454Z,21.50
2023-05-01T12:41:38.920Z,21.20
2023-05-01T12:44:20.168Z,21.50
2023-05-01T12:46:55.310Z,21.00
2023-05-01T12:49:24.018Z,21.20
2023-05-01T12:51:52.746Z,21.40
2023-05-01T12:54:22.282Z,21.30
2023-05-01T12:56:50.702Z,21.10
2023-05-01T12:59:22.188Z,21.40
2023-05-01T13:02:00.616Z,21.60
2023-05-01T13:04:29.092Z,21.80
2023-05-01T13:06:57.537Z,20.90
2023-05-01T13:09:27.276Z,21.10
2023-05-01T13:12:00.025Z,21.20
2023-05-01T13:14:28.121Z,21.00
2023-05-01T13:16:57.723Z,21.20
2023-05-01T13:19:29.487Z,21.30
2023-05-01T13:21:58.105Z,21.30
2023-05-01T13:24:26.437Z,20.80
2023-05-01T13:27:03.514Z,21.00
2023-05-01T13:29:33.654Z,21.40
2023-05-01T13:32:04.605Z,21.00
2023-05-01T13:34:33.098Z,21.20
2023-05-01T13:37:02.127Z,21.90
2023-05-01T13:39:30.335Z,21.30
2023-05-01T13:41:58.530Z,21.50
2023-05-01T13:44:28.514Z,21.70
2023-05-01T13:46:56.858Z,22.20
2023-05-01T13:49:26.392Z,21.90
2023-05-01T13:51:55.648Z,21.30
2023-05-01T13:54:24.421Z,21.10
2023-05-01T13:56:52.814Z,21.30
2023-05-01T13:59:20.929Z,20.80
2023-05-01T14:01:49.190Z,20.80
2023-05-01T14:04:18.409Z,21.30
2023-05-01T14:06:48.881Z,21.30
2023-05-01T14:09:18.528Z,21.30
2023-05-01T14:11:47.768Z,21.70
2023-05-01T14:14:17.222Z,22.10
2023-05-01T14:16:48.620Z,22.40
2023-05-01T14:19:17.572Z,22.60
2023-05-01T14:21:47.836Z,22.80
2023-05-01T14:24:17.949Z,22.90
2023-05-01T14:26:46.755Z,22.60
2023-05-01T14:29:18.279Z,23.30
2023-05-01T14:31:46.692Z,22.80
2023-05-01T14:34:14.956Z,22.60
2023-05-01T14:36:43.702Z,23.10
2023-05-01T14:39:13.420Z,22.20
2023-05-01T14:41:42.525Z,21.30
2023-05-01T14:44:13.041Z,22.20
2023-05-01T14:46:46.190Z,22.30
2023-05-01T14:49:19.546Z,22.00
2023-05-01T14:51:47.806Z,21.50
2023-05-01T14:54:17.317Z,21.80
2023-05-01T14:56:45.650Z,21.70
2023-05-01T14:59:13.823Z,21.70
2023-05-01T15:01:41.982Z,21.70
2023-05-01T15:04:11.802Z,21.50
2023-05-01T15:06:40.289Z,21.50
2023-05-01T15:09:08.505Z,21.80
2023-05-01T15:11:39.133Z,21.50
2023-05-01T15:14:07.320Z,21.90
2023-05-01T15:16:35.611Z,21.70
2023-05-01T15:19:03.776Z,21.70
2023-05-01T15:21:32.231Z,22.20
2023-05-01T15:24:00.383Z,22.00
2023-05-01T15:26:28.741Z,22.00
2023-05-01T15:28:58.751Z,22.20
2023-05-01T15:31:26.965Z,22.00
2023-05-01T15:33:55.160Z,21.50
2023-05-01T15:36:23.305Z,21.50
2023-05-01T15:38:51.726Z,21.70
2023-05-01T15:41:19.816Z,22.20
2023-05-01T15:43:47.955Z,21.80
2023-05-01T15:46:20.260Z,22.20
2023-05-01T15:48:48.380Z,21.50
2023-05-01T15:51:16.485Z,21.70
2023-05-01T15:53:45.040Z,22.00
2023-05-01T15:56:13.185Z,21.90
2023-05-01T15:58:41.676Z,22.00
2023-05-01T16:01:10.552Z,22.10
2023-05-01T16:03:46.094Z,22.20
2023-05-01T16:06:15.233Z,22.30
2023-05-01T16:08:43.403Z,22.00
2023-05-01T16:11:12.592Z,22.20
2023-05-01T16:13:40.847Z,22.00
2023-05-01T16:16:10.322Z,21.40
2023-05-01T16:18:41.808Z,21.60
2023-05-01T16:21:10.993Z,21.30
2023-05-01T16:23:39.863Z,21.60
2023-05-01T16:26:08.212Z,21.50
2023-05-01T16:28:36.434Z,21.40
2023-05-01T16:31:16.038Z,21.30
2023-05-01T16:33:56.869Z,21.40
2023-05-01T16:36:25.128Z,21.30
2023-05-01T16:38:53.946Z,21.10
2023-05-01T16:41:24.342Z,21.10
2023-05-01T16:43:52.530Z,21.30
2023-05-01T16:46:20.909Z,20.90
2023-05-01T16:48:49.121Z,21.20
2023-05-01T16:51:20.096Z,21.30
2023-05-01T16:53:48.404Z,20.80
2023-05-01T16:56:16.836Z,20.90
2023-05-01T16:58:45.253Z,20.90
2023-05-01T17:01:13.606Z,21.00
2023-05-01T17:03:41.830Z,20.90
2023-05-01T17:06:10.184Z,20.70
2023-05-01T17:08:39.847Z,20.50
2023-05-01T17:11:08.529Z,20.30
2023-05-01T17:13:36.914Z,20.40
2023-05-01T17:16:05.503Z,20.60
2023-05-01T17:18:34.296Z,20.70
2023-05-01T17:21:02.530Z,20.70
2023-05-01T17:23:30.953Z,20.70
2023-05-01T17:26:03.178Z,20.50
2023-05-01T17:28:31.319Z,20.70
2023-05-01T17:30:59.839Z,20.40
2023-05-01T17:33:30.331Z,20.20
2023-05-01T17:36:00.720Z,20.30
2023-05-01T17:38:30.373Z,20.30
2023-05-01T17:40:58.600Z,20.00
2023-05-01T17:43:34.136Z,19.90
2023-05-01T17:46:02.585Z,20.20
2023-05-01T17:48:30.755Z,20.00
2023-05-01T17:50:58.955Z,20.00
2023-05-01T17:53:29.663Z,20.10
2023-05-01T17:55:58.513Z,19.40
2023-05-01T17:58:28.248Z,19.70
2023-05-01T18:00:58.748Z,19.50
2023-05-01T18:03:27.557Z,19.30
2023-05-01T18:05:55.922Z,19.30
2023-05-01T18:08:24.230Z,19.50
2023-05-01T18:10:52.903Z,19.40
2023-05-01T18:13:28.525Z,19.40
2023-05-01T18:15:58.124Z,19.50
2023-05-01T18:18:26.364Z,19.30
2023-05-01T18:20:54.888Z,19.20
2023-05-01T18:23:25.291Z,19.40
2023-05-01T18:25:53.561Z,19.40
2023-05-01T18:28:21.643Z,19.30
2023-05-01T18:30:49.808Z,19.10
2023-05-01T18:33:19.541Z,19.00
2023-05-01T18:35:47.807Z,19.00
2023-05-01T18:38:16.177Z,19.10
2023-05-01T18:40:47.784Z,19.10
2023-05-01T18:43:16.755Z,18.60
2023-05-01T18:45:45.149Z,18.80
2023-05-01T18:48:13.329Z,18.80
2023-05-01T18:50:44.516Z,18.70
2023-05-01T18:53:17.310Z,18.90
2023-05-01T18:55:45.622Z,18.90
2023-05-01T18:58:13.804Z,19.00
2023-05-01T19:00:41.931Z,18.80
2023-05-01T19:03:11.690Z,18.60
2023-05-01T19:05:41.546Z,18.80
2023-05-01T19:08:11.120Z,18.70
2023-05-01T19:10:39.280Z,18.80
2023-05-01T19:13:07.487Z,18.80
2023-05-01T19:15:36.365Z,18.80
2023-05-01T19:18:05.143Z,18.90
2023-05-01T19:20:33.370Z,18.10
2023-05-01T19:23:01.478Z,17.30
2023-05-01T19:25:32.568Z,16.80
2023-05-01T19:28:02.118Z,16.80
2023-05-01T19:30:30.314Z,16.90
2023-05-01T19:32:59.180Z,16.80
2023-05-01T19:35:27.601Z,16.30
2023-05-01T19:37:56.669Z,16.20
2023-05-01T19:40:24.947Z,15.80
2023-05-01T19:42:54.420Z,15.90
2023-05-01T19:45:22.559Z,15.80
2023-05-01T19:47:50.829Z,16.30
2023-05-01T19:50:19.521Z,16.20
2023-05-01T19:52:47.714Z,16.20
2023-05-01T19:55:17.101Z,16.10
2023-05-01T19:57:46.645Z,16.00
2023-05-01T20:00:18.643Z,15.80
2023-05-01T20:02:47.737Z,15.80
2023-05-01T20:05:16.121Z,15.50
2023-05-01T20:07:44.513Z,16.00
2023-05-01T20:10:12.689Z,15.70
2023-05-01T20:12:41.435Z,15.70
2023-05-01T20:15:11.118Z,15.70
2023-05-01T20:17:40.700Z,15.90
2023-05-01T20:20:10.266Z,15.90
2023-05-01T20:22:38.414Z,15.90
2023-05-01T20:25:09.561Z,15.40
2023-05-01T20:27:38.156Z,15.60
2023-05-01T20:30:07.874Z,15.80
2023-05-01T20:32:36.908Z,16.70
2023-05-01T20:35:07.491Z,15.60
2023-05-01T20:37:35.551Z,16.20
2023-05-01T20:40:05.588Z,16.40
2023-05-01T20:42:33.702Z,16.00
2023-05-01T20:45:01.841Z,16.70
2023-05-01T20:47:31.356Z,16.80
2023-05-01T20:50:00.300Z,16.10
2023-05-01T20:52:30.237Z,16.60
2023-05-01T20:54:58.522Z,16.40
2023-05-01T20:57:27.724Z,16.20
2023-05-01T20:59:56.395Z,16.10
2023-05-01T21:02:24.834Z,16.30
2023-05-01T21:04:53.619Z,16.30
2023-05-01T21:07:21.825Z,15.90
2023-05-01T21:09:51.423Z,15.70
2023-05-01T21:12:19.551Z,15.50
2023-05-01T21:14:48.069Z,15.30
2023-05-01T21:17:16.336Z,15.20
2023-05-01T21:19:45.186Z,15.40
2023-05-01T21:22:15.893Z,15.20
2023-05-01T21:24:44.788Z,15.30
2023-05-01T21:27:14.476Z,15.50
2023-05-01T21:29:42.666Z,15.30
2023-05-01T21:32:10.729Z,15.20
2023-05-01T21:34:38.849Z,15.60
2023-05-01T21:37:08.117Z,15.40
2023-05-01T21:39:36.202Z,15.70
2023-05-01T21:42:05.040Z,15.70
2023-05-01T21:44:34.541Z,15.50
2023-05-01T21:47:02.679Z,15.70
2023-05-01T21:49:31.142Z,15.90
2023-05-01T21:52:00.440Z,15.90
2023-05-01T21:54:29.127Z,16.10
2023-05-01T21:56:59.672Z,16.10
2023-05-01T21:59:29.122Z,16.00
2023-05-01T22:01:58.557Z,16.00
2023-05-01T22:04:26.730Z,15.50
2023-05-01T22:06:55.036Z,15.30
2023-05-01T22:09:23.105Z,15.60
2023-05-01T22:11:51.219Z,15.50
2023-05-01T22:14:19.299Z,15.70
2023-05-01T22:16:47.673Z,16.00
2023-05-01T22:19:18.282Z,15.90
2023-05-01T22:21:46.374Z,15.50
2023-05-01T22:24:14.530Z,15.60
2023-05-01T22:26:42.604Z,16.30
2023-05-01T22:29:10.864Z,16.40
2023-05-01T22:31:39.002Z,16.20
2023-05-01T22:34:07.661Z,16.10
2023-05-01T22:36:37.481Z,16.10
2023-05-01T22:39:05.671Z,16.30
2023-05-01T22:41:33.858Z,16.40
2023-05-01T22:44:02.045Z,16.50
2023-05-01T22:46:30.271Z,16.70
2023-05-01T22:48:59.686Z,16.80
2023-05-01T22:51:28.327Z,17.10
2023-05-01T22:53:57.896Z,17.10
2023-05-01T22:56:26.850Z,17.20
2023-05-01T22:58:55.340Z,17.00
2023-05-01T23:01:23.792Z,17.30
2023-05-01T23:03:52.117Z,17.00
2023-05-01T23:06:20.340Z,16.70
2023-05-01T23:08:48.417Z,16.60
2023-05-01T23:11:18.974Z,16.00
2023-05-01T23:13:48.404Z,16.00
2023-05-01T23:16:17.202Z,16.30
2023-05-01T23:18:45.450Z,16.20
2023-05-01T23:21:14.260Z,16.10
2023-05-01T23:23:44.097Z,16.20
2023-05-01T23:26:12.304Z,16.30
2023-05-01T23:28:43.454Z,16.00
2023-05-01T23:31:14.873Z,16.10
2023-05-01T23:33:43.084Z,16.00
2023-05-01T23:36:12.994Z,16.20
2023-05-01T23:38:41.406Z,16.10
2023-05-01T23:41:09.501Z,15.90
2023-05-01T23:43:37.979Z,15.90
2023-05-01T23:46:07.742Z,15.80
2023-05-01T23:48:36.010Z,15.80
2023-05-01T23:51:04.206Z,15.80
2023-05-01T23:53:32.341Z,15.90
2023-05-01T23:56:00.423Z,15.80
2023-05-01T23:58:28.505Z,16.00
